Terminal Aerodrome Forecast
Issued by NWS Wilmington, NC

Home | Current Version | Previous Version | Text Only | Print | Product List | Glossary On
Versions: 1 2 3 4 5 6 7 8 9 10 11 12 13 14 15 16 17 18 19 20 21 22
000
FTUS42 KILM 160200 AAA
TAFILM
TAF AMD
KILM 160252Z 1603/1624 VRB02KT P6SM SCT020 BKN040
      TEMPO 1603/1606 BKN030
     FM160800 00000KT 5SM BR VCSH FEW008 OVC015
     FM161500 36004KT P6SM BKN020 BKN100
     FM161800 14006KT P6SM SCT030 BKN250=

USA.gov is the U.S. government's official web portal to all federal, state and local government web resources and services.